createdAt,value
2018-08-06T00:00:19.594Z,37.60
2018-08-06T00:02:52.871Z,40.07
2018-08-06T00:05:25.874Z,37.30
2018-08-06T00:07:59.075Z,37.50
2018-08-06T00:10:32.260Z,42.57
2018-08-06T00:13:05.427Z,39.07
2018-08-06T00:15:38.442Z,42.17
2018-08-06T00:18:11.883Z,38.17
2018-08-06T00:20:45.776Z,37.27
2018-08-06T00:23:18.822Z,51.47
2018-08-06T00:25:51.837Z,53.50
2018-08-06T00:28:25.457Z,41.60
2018-08-06T00:30:59.460Z,41.87
2018-08-06T00:33:32.650Z,36.13
2018-08-06T00:36:05.742Z,45.23
2018-08-06T00:38:38.964Z,46.07
2018-08-06T00:41:12.184Z,47.50
2018-08-06T00:43:45.319Z,51.23
2018-08-06T00:46:18.464Z,41.50
2018-08-06T00:48:51.554Z,37.27
2018-08-06T00:51:24.551Z,44.00
2018-08-06T00:53:57.628Z,45.93
2018-08-06T00:56:31.257Z,42.80
2018-08-06T00:59:04.320Z,43.93
2018-08-06T01:01:37.433Z,47.13
2018-08-06T01:04:10.541Z,52.43
2018-08-06T01:06:43.660Z,50.97
2018-08-06T01:09:16.770Z,58.03
2018-08-06T01:11:49.815Z,48.00
2018-08-06T01:14:22.927Z,43.30
2018-08-06T01:16:56.019Z,46.93
2018-08-06T01:19:29.231Z,46.40
2018-08-06T01:22:02.443Z,41.20
2018-08-06T01:24:35.491Z,34.90
2018-08-06T01:27:08.547Z,36.20
2018-08-06T01:29:41.679Z,32.43
2018-08-06T01:32:15.804Z,52.60
2018-08-06T01:34:48.823Z,42.17
2018-08-06T01:37:21.838Z,53.83
2018-08-06T01:39:54.920Z,44.07
2018-08-06T01:42:28.186Z,38.47
2018-08-06T01:45:01.207Z,37.03
2018-08-06T01:47:34.431Z,38.00
2018-08-06T01:50:08.517Z,49.70
2018-08-06T01:52:41.742Z,39.33
2018-08-06T01:55:15.074Z,41.73
2018-08-06T01:57:48.134Z,43.23
2018-08-06T02:00:21.216Z,38.40
2018-08-06T02:02:54.344Z,36.50
2018-08-06T02:05:27.418Z,38.17
2018-08-06T02:08:00.603Z,47.50
2018-08-06T02:10:33.621Z,43.17
2018-08-06T02:13:06.961Z,53.50
2018-08-06T02:15:40.116Z,38.63
2018-08-06T02:18:13.108Z,38.13
2018-08-06T02:20:46.092Z,49.10
2018-08-06T02:23:19.151Z,36.97
2018-08-06T02:25:52.362Z,46.73
2018-08-06T02:28:25.614Z,47.67
2018-08-06T02:30:58.732Z,67.97
2018-08-06T02:33:32.712Z,46.47
2018-08-06T02:36:05.843Z,49.63
2018-08-06T02:38:38.974Z,48.70
2018-08-06T02:41:11.959Z,52.63
2018-08-06T02:43:45.359Z,50.43
2018-08-06T02:46:18.352Z,52.83
2018-08-06T02:48:51.480Z,46.03
2018-08-06T02:51:24.494Z,53.95
2018-08-06T02:53:57.599Z,34.40
2018-08-06T02:56:31.828Z,38.47
2018-08-06T02:59:04.964Z,36.50
2018-08-06T03:01:38.051Z,36.70
2018-08-06T03:04:11.697Z,30.93
2018-08-06T03:06:44.732Z,34.87
2018-08-06T03:09:17.880Z,41.47
2018-08-06T03:11:51.091Z,34.80
2018-08-06T03:14:24.352Z,45.20
2018-08-06T03:16:57.553Z,41.73
2018-08-06T03:19:31.783Z,31.70
2018-08-06T03:22:04.959Z,35.80
2018-08-06T03:24:38.052Z,32.73
2018-08-06T03:27:11.195Z,35.60
2018-08-06T03:29:44.312Z,32.13
2018-08-06T03:32:17.439Z,37.57
2018-08-06T03:34:50.511Z,36.43
2018-08-06T03:37:23.623Z,36.35
2018-08-06T03:39:56.791Z,33.87
2018-08-06T03:42:29.929Z,38.48
2018-08-06T03:45:02.994Z,37.70
2018-08-06T03:47:35.995Z,38.87
2018-08-06T03:50:11.236Z,43.03
2018-08-06T03:52:44.600Z,49.40
2018-08-06T03:55:17.986Z,41.40
2018-08-06T03:57:51.083Z,43.00
2018-08-06T04:00:24.201Z,38.83
2018-08-06T04:02:57.187Z,41.20
2018-08-06T04:05:30.916Z,36.70
2018-08-06T04:08:03.964Z,33.17
2018-08-06T04:10:38.277Z,36.37
2018-08-06T04:13:11.317Z,40.07
2018-08-06T04:15:44.304Z,35.40
2018-08-06T04:18:17.310Z,35.10
2018-08-06T04:20:50.344Z,34.03
2018-08-06T04:23:23.494Z,35.43
2018-08-06T04:25:56.586Z,34.07
2018-08-06T04:28:29.686Z,36.73
2018-08-06T04:31:02.688Z,41.23
2018-08-06T04:33:36.478Z,36.73
2018-08-06T04:36:10.821Z,35.80
2018-08-06T04:38:43.824Z,35.70
2018-08-06T04:41:16.876Z,33.97
2018-08-06T04:43:49.839Z,41.90
2018-08-06T04:46:23.468Z,44.23
2018-08-06T04:48:56.465Z,37.57
2018-08-06T04:51:29.410Z,35.28
2018-08-06T04:54:02.509Z,36.17
2018-08-06T04:56:35.471Z,33.37
2018-08-06T04:59:08.555Z,35.93
2018-08-06T05:01:41.821Z,36.10
2018-08-06T05:04:15.507Z,37.55
2018-08-06T05:06:48.714Z,38.90
2018-08-06T05:09:26.718Z,42.88
2018-08-06T05:11:59.855Z,43.70
2018-08-06T05:14:32.793Z,39.93
2018-08-06T05:17:06.120Z,47.40
2018-08-06T05:19:39.871Z,36.60
2018-08-06T05:22:13.084Z,39.77
2018-08-06T05:24:46.131Z,43.70
2018-08-06T05:27:19.134Z,47.60
2018-08-06T05:29:52.208Z,39.83
2018-08-06T05:32:25.263Z,37.67
2018-08-06T05:34:58.387Z,35.83
2018-08-06T05:37:31.421Z,36.28
2018-08-06T05:40:05.507Z,37.80
2018-08-06T05:42:38.663Z,33.10
2018-08-06T05:45:12.903Z,37.70
2018-08-06T05:47:46.046Z,34.77
2018-08-06T05:50:19.836Z,42.10
2018-08-06T05:52:52.770Z,37.77
2018-08-06T05:55:25.976Z,37.17
2018-08-06T05:57:59.105Z,42.20
2018-08-06T06:00:33.664Z,41.58
2018-08-06T06:03:06.756Z,33.97
2018-08-06T06:05:39.860Z,36.10
2018-08-06T06:08:12.811Z,46.80
2018-08-06T06:10:45.737Z,34.37
2018-08-06T06:13:18.810Z,43.27
2018-08-06T06:15:51.929Z,45.10
2018-08-06T06:18:24.903Z,40.20
2018-08-06T06:20:57.915Z,39.53
2018-08-06T06:23:31.035Z,42.97
2018-08-06T06:26:04.233Z,43.10
2018-08-06T06:28:37.727Z,42.87
2018-08-06T06:31:10.782Z,37.70
2018-08-06T06:33:43.770Z,39.50
2018-08-06T06:36:17.003Z,37.80
2018-08-06T06:38:50.434Z,32.03
2018-08-06T06:41:23.438Z,36.05
2018-08-06T06:43:56.407Z,39.50
2018-08-06T06:46:29.487Z,44.10
2018-08-06T06:49:04.096Z,38.20
2018-08-06T06:51:38.210Z,37.83
2018-08-06T06:54:12.085Z,51.03
2018-08-06T06:56:46.451Z,40.70
2018-08-06T06:59:19.538Z,45.23
2018-08-06T07:01:52.595Z,36.67
2018-08-06T07:04:25.591Z,39.70
2018-08-06T07:06:58.745Z,40.43
2018-08-06T07:09:31.738Z,46.83
2018-08-06T07:12:04.819Z,46.70
2018-08-06T07:14:37.940Z,40.00
2018-08-06T07:17:10.999Z,38.43
2018-08-06T07:19:44.033Z,38.63
2018-08-06T07:22:17.184Z,37.87
2018-08-06T07:24:50.255Z,35.97
2018-08-06T07:27:23.406Z,43.23
2018-08-06T07:29:56.497Z,43.73
2018-08-06T07:32:29.716Z,36.58
2018-08-06T07:35:02.627Z,37.97
2018-08-06T07:37:35.674Z,35.37
2018-08-06T07:40:10.209Z,33.13
2018-08-06T07:42:43.481Z,32.07
2018-08-06T07:45:21.695Z,35.83
2018-08-06T07:47:55.102Z,36.23
2018-08-06T07:50:28.167Z,43.23
2018-08-06T07:53:01.261Z,30.27
2018-08-06T07:55:35.028Z,32.07
2018-08-06T07:58:08.394Z,32.67
2018-08-06T08:00:41.924Z,27.47
2018-08-06T08:03:15.263Z,28.47
2018-08-06T08:05:48.478Z,23.60
2018-08-06T08:08:21.560Z,28.23
2018-08-06T08:10:54.622Z,26.73
2018-08-06T08:13:27.677Z,24.47
2018-08-06T08:16:01.479Z,32.20
2018-08-06T08:18:34.577Z,35.47
2018-08-06T08:21:07.653Z,36.27
2018-08-06T08:23:40.887Z,32.83
2018-08-06T08:26:13.858Z,32.80
2018-08-06T08:28:46.869Z,34.47
2018-08-06T08:31:20.098Z,40.20
2018-08-06T08:33:53.272Z,41.23
2018-08-06T08:36:26.583Z,33.83
2018-08-06T08:38:59.573Z,37.10
2018-08-06T08:41:33.265Z,35.53
2018-08-06T08:44:06.372Z,30.77
2018-08-06T08:46:39.488Z,30.63
2018-08-06T08:49:12.530Z,35.17
2018-08-06T08:51:45.590Z,29.67
2018-08-06T08:54:19.559Z,33.27
2018-08-06T08:56:52.611Z,35.77
2018-08-06T08:59:25.724Z,34.78
2018-08-06T09:01:58.848Z,33.73
2018-08-06T09:04:32.626Z,35.03
2018-08-06T09:07:05.591Z,34.73
2018-08-06T09:09:38.644Z,47.13
2018-08-06T09:12:11.725Z,42.57
2018-08-06T09:14:45.850Z,36.60
2018-08-06T09:17:18.891Z,41.73
2018-08-06T09:19:51.980Z,45.87
2018-08-06T09:22:26.274Z,35.05
2018-08-06T09:24:59.360Z,39.37
2018-08-06T09:27:32.391Z,36.88
2018-08-06T09:30:05.433Z,37.47
2018-08-06T09:32:38.487Z,40.43
2018-08-06T09:35:11.551Z,36.83
2018-08-06T09:37:44.963Z,40.40
2018-08-06T09:40:19.280Z,43.27
2018-08-06T09:42:53.294Z,40.10
2018-08-06T09:45:26.555Z,42.03
2018-08-06T09:47:59.650Z,44.47
2018-08-06T09:50:33.636Z,52.60
2018-08-06T09:53:06.742Z,37.47
2018-08-06T09:55:41.151Z,42.73
2018-08-06T09:58:14.123Z,37.53
2018-08-06T10:00:51.095Z,43.20
2018-08-06T10:03:24.225Z,37.87
2018-08-06T10:05:57.513Z,36.97
2018-08-06T10:08:30.651Z,39.95
2018-08-06T10:11:03.814Z,38.63
2018-08-06T10:13:36.950Z,39.47
2018-08-06T10:16:10.140Z,39.03
2018-08-06T10:18:43.233Z,45.03
2018-08-06T10:21:16.515Z,40.13
2018-08-06T10:23:49.526Z,41.67
2018-08-06T10:26:22.562Z,37.17
2018-08-06T10:28:55.661Z,46.87
2018-08-06T10:31:28.733Z,45.33
2018-08-06T10:34:01.787Z,37.03
2018-08-06T10:36:34.863Z,40.17
2018-08-06T10:39:10.039Z,38.07
2018-08-06T10:41:43.091Z,40.93
2018-08-06T10:44:16.171Z,38.27
2018-08-06T10:46:49.327Z,35.90
2018-08-06T10:49:22.295Z,39.63
2018-08-06T10:51:55.575Z,37.10
2018-08-06T10:54:28.707Z,46.95
2018-08-06T10:57:01.859Z,45.50
2018-08-06T10:59:34.883Z,49.53
2018-08-06T11:02:07.972Z,40.80
2018-08-06T11:04:41.237Z,44.37
2018-08-06T11:07:15.261Z,38.43
2018-08-06T11:09:48.253Z,34.00
2018-08-06T11:12:21.420Z,38.60
2018-08-06T11:14:54.596Z,37.10
2018-08-06T11:17:27.862Z,32.45
2018-08-06T11:20:00.879Z,31.57
2018-08-06T11:22:33.804Z,33.17
2018-08-06T11:25:06.866Z,29.57
2018-08-06T11:27:39.997Z,30.97
2018-08-06T11:30:16.232Z,30.50
2018-08-06T11:32:50.078Z,33.87
2018-08-06T11:35:23.301Z,32.42
2018-08-06T11:37:56.479Z,36.77
2018-08-06T11:40:30.643Z,32.97
2018-08-06T11:43:03.563Z,35.93
2018-08-06T11:45:36.574Z,34.00
2018-08-06T11:48:09.580Z,34.47
2018-08-06T11:50:42.658Z,42.17
2018-08-06T11:53:15.780Z,54.63
2018-08-06T11:55:48.815Z,59.73
2018-08-06T11:58:21.898Z,57.63
2018-08-06T12:00:54.832Z,55.77
2018-08-06T12:03:27.904Z,53.03
2018-08-06T12:06:00.885Z,49.93
2018-08-06T12:08:33.919Z,40.33
2018-08-06T12:11:06.765Z,46.70
2018-08-06T12:13:39.821Z,46.80
2018-08-06T12:16:12.945Z,49.37
2018-08-06T12:18:46.333Z,51.20
2018-08-06T12:21:19.575Z,48.42
2018-08-06T12:23:52.907Z,42.67
2018-08-06T12:26:26.207Z,42.40
2018-08-06T12:28:59.455Z,42.43
2018-08-06T12:31:32.692Z,49.80
2018-08-06T12:34:06.012Z,44.33
2018-08-06T12:36:39.220Z,45.33
2018-08-06T12:39:15.022Z,48.83
2018-08-06T12:41:48.423Z,46.27
2018-08-06T12:44:21.674Z,48.53
2018-08-06T12:46:54.740Z,48.50
2018-08-06T12:49:27.944Z,47.93
2018-08-06T12:52:01.119Z,48.53
2018-08-06T12:54:34.351Z,48.17
2018-08-06T12:57:07.596Z,52.40
2018-08-06T12:59:40.751Z,46.57
2018-08-06T13:02:13.832Z,45.63
2018-08-06T13:04:46.998Z,46.97
2018-08-06T13:07:20.238Z,50.10
2018-08-06T13:09:53.599Z,42.87
2018-08-06T13:12:26.683Z,49.67
2018-08-06T13:14:59.972Z,50.40
2018-08-06T13:17:33.140Z,49.20
2018-08-06T13:20:06.292Z,44.97
2018-08-06T13:22:39.538Z,44.80
2018-08-06T13:25:15.520Z,48.73
2018-08-06T13:27:48.799Z,43.70
2018-08-06T13:30:21.885Z,45.10
2018-08-06T13:32:55.014Z,44.87
2018-08-06T13:35:28.137Z,44.40
2018-08-06T13:38:01.329Z,56.90
2018-08-06T13:40:34.945Z,48.93
2018-08-06T13:43:08.357Z,43.57
2018-08-06T13:45:41.963Z,43.37
2018-08-06T13:48:16.516Z,54.63
2018-08-06T13:50:49.671Z,49.23
2018-08-06T13:53:22.888Z,51.70
2018-08-06T13:55:56.182Z,49.53
2018-08-06T13:58:29.449Z,48.70
2018-08-06T14:01:02.732Z,46.40
2018-08-06T14:03:35.821Z,48.77
2018-08-06T14:06:09.023Z,38.13
2018-08-06T14:08:42.296Z,43.83
2018-08-06T14:11:15.492Z,38.63
2018-08-06T14:13:48.625Z,43.00
2018-08-06T14:16:21.770Z,39.13
2018-08-06T14:18:54.998Z,38.87
2018-08-06T14:21:28.227Z,35.45
2018-08-06T14:24:01.535Z,43.60
2018-08-06T14:26:34.749Z,37.20
2018-08-06T14:29:08.141Z,40.60
2018-08-06T14:31:41.624Z,35.50
2018-08-06T14:34:15.595Z,34.30
2018-08-06T14:36:48.745Z,37.07
2018-08-06T14:39:21.926Z,40.97
2018-08-06T14:41:54.954Z,43.73
2018-08-06T14:44:28.058Z,39.70
2018-08-06T14:47:01.275Z,38.57
2018-08-06T14:49:34.716Z,37.43
2018-08-06T14:52:08.023Z,34.67
2018-08-06T14:54:41.236Z,33.67
2018-08-06T14:57:15.362Z,33.73
2018-08-06T14:59:48.515Z,36.30
2018-08-06T15:02:21.780Z,35.05
2018-08-06T15:04:55.447Z,34.30
2018-08-06T15:07:28.573Z,35.37
2018-08-06T15:10:01.803Z,45.47
2018-08-06T15:12:34.975Z,40.80
2018-08-06T15:15:08.705Z,45.77
2018-08-06T15:17:42.046Z,36.93
2018-08-06T15:20:17.254Z,40.77
2018-08-06T15:22:50.907Z,38.50
2018-08-06T15:25:25.592Z,37.67
2018-08-06T15:27:58.701Z,37.30
2018-08-06T15:30:31.882Z,45.58
2018-08-06T15:33:04.966Z,35.47
2018-08-06T15:35:38.293Z,39.93
2018-08-06T15:38:12.489Z,43.43
2018-08-06T15:40:45.637Z,36.80
2018-08-06T15:43:18.880Z,34.97
2018-08-06T15:45:52.049Z,35.70
2018-08-06T15:48:25.336Z,34.35
2018-08-06T15:50:58.415Z,35.20
2018-08-06T15:53:31.748Z,28.87
2018-08-06T15:56:04.858Z,32.10
2018-08-06T15:58:38.106Z,35.10
2018-08-06T16:01:11.334Z,28.00
2018-08-06T16:03:44.489Z,33.03
2018-08-06T16:06:17.933Z,32.87
2018-08-06T16:08:51.014Z,33.30
2018-08-06T16:11:24.261Z,26.83
2018-08-06T16:13:57.334Z,32.63
2018-08-06T16:16:30.603Z,34.63
2018-08-06T16:19:03.715Z,45.10
2018-08-06T16:21:36.835Z,32.17
2018-08-06T16:24:09.915Z,33.67
2018-08-06T16:26:43.067Z,39.30
2018-08-06T16:29:16.235Z,31.67
2018-08-06T16:31:49.664Z,36.30
2018-08-06T16:34:22.800Z,29.30
2018-08-06T16:36:55.937Z,28.73
2018-08-06T16:39:29.178Z,28.85
2018-08-06T16:42:02.591Z,32.33
2018-08-06T16:44:35.787Z,26.70
2018-08-06T16:47:09.090Z,29.33
2018-08-06T16:49:42.333Z,35.50
2018-08-06T16:52:15.695Z,31.63
2018-08-06T16:54:48.776Z,33.23
2018-08-06T16:57:21.871Z,32.50
2018-08-06T16:59:55.165Z,30.50
2018-08-06T17:02:28.351Z,30.60
2018-08-06T17:05:01.374Z,25.43
2018-08-06T17:07:34.600Z,35.63
2018-08-06T17:10:08.420Z,33.77
2018-08-06T17:12:41.447Z,30.97
2018-08-06T17:15:16.999Z,33.97
2018-08-06T17:17:50.745Z,31.23
2018-08-06T17:20:25.004Z,29.65
2018-08-06T17:22:58.413Z,32.47
2018-08-06T17:25:31.707Z,38.83
2018-08-06T17:28:04.780Z,32.40
2018-08-06T17:30:37.892Z,31.47
2018-08-06T17:33:11.068Z,30.30
2018-08-06T17:35:44.262Z,28.43
2018-08-06T17:38:17.437Z,30.40
2018-08-06T17:40:50.894Z,27.83
2018-08-06T17:43:24.028Z,35.00
2018-08-06T17:45:57.179Z,29.20
2018-08-06T17:48:30.574Z,27.07
2018-08-06T17:51:03.745Z,32.13
2018-08-06T17:53:36.782Z,36.37
2018-08-06T17:56:09.911Z,43.27
2018-08-06T17:58:44.033Z,29.97
2018-08-06T18:01:18.182Z,36.57
2018-08-06T18:03:53.704Z,40.53
2018-08-06T18:06:27.072Z,33.83
2018-08-06T18:09:00.295Z,44.50
2018-08-06T18:11:33.435Z,31.13
2018-08-06T18:14:06.576Z,30.30
2018-08-06T18:16:39.795Z,29.63
2018-08-06T18:19:13.212Z,40.53
2018-08-06T18:21:46.366Z,29.20
2018-08-06T18:24:19.450Z,28.90
2018-08-06T18:26:53.717Z,37.20
2018-08-06T18:29:26.991Z,37.00
2018-08-06T18:32:00.252Z,36.63
2018-08-06T18:34:33.375Z,34.87
2018-08-06T18:37:06.796Z,29.93
2018-08-06T18:39:39.872Z,39.93
2018-08-06T18:42:13.092Z,38.03
2018-08-06T18:44:46.287Z,38.40
2018-08-06T18:47:19.412Z,37.20
2018-08-06T18:49:52.600Z,37.53
2018-08-06T18:52:25.801Z,38.15
2018-08-06T18:54:59.074Z,32.33
2018-08-06T18:57:36.532Z,38.73
2018-08-06T19:00:13.719Z,40.83
2018-08-06T19:02:46.827Z,34.77
2018-08-06T19:05:20.093Z,43.83
2018-08-06T19:07:53.480Z,38.87
2018-08-06T19:10:26.714Z,37.78
2018-08-06T19:13:03.827Z,32.97
2018-08-06T19:15:37.044Z,37.53
2018-08-06T19:18:14.449Z,35.03
2018-08-06T19:20:47.595Z,39.23
2018-08-06T19:23:20.943Z,34.45
2018-08-06T19:25:54.076Z,46.70
2018-08-06T19:28:27.183Z,42.83
2018-08-06T19:31:04.419Z,34.50
2018-08-06T19:33:37.522Z,36.30
2018-08-06T19:36:11.671Z,34.63
2018-08-06T19:38:44.833Z,42.30
2018-08-06T19:41:17.945Z,49.23
2018-08-06T19:43:50.961Z,46.07
2018-08-06T19:46:24.165Z,57.67
2018-08-06T19:48:57.152Z,37.70
2018-08-06T19:51:30.306Z,48.97
2018-08-06T19:54:03.674Z,47.37
2018-08-06T19:56:36.707Z,49.20
2018-08-06T19:59:10.666Z,61.33
2018-08-06T20:01:43.753Z,41.30
2018-08-06T20:04:16.924Z,53.23
2018-08-06T20:06:50.122Z,46.83
2018-08-06T20:09:23.172Z,53.58
2018-08-06T20:11:56.391Z,49.67
2018-08-06T20:14:29.567Z,44.25
2018-08-06T20:17:02.699Z,40.43
2018-08-06T20:19:35.658Z,49.70
2018-08-06T20:22:09.517Z,49.73
2018-08-06T20:24:42.924Z,47.83
2018-08-06T20:27:16.201Z,49.33
2018-08-06T20:29:49.527Z,42.63
2018-08-06T20:32:22.630Z,42.20
2018-08-06T20:34:55.822Z,65.30
2018-08-06T20:37:29.057Z,47.20
2018-08-06T20:40:02.280Z,47.27
2018-08-06T20:42:35.724Z,40.97
2018-08-06T20:45:10.227Z,39.20
2018-08-06T20:47:44.160Z,44.60
2018-08-06T20:50:21.891Z,66.53
2018-08-06T20:52:55.813Z,50.80
2018-08-06T20:55:28.964Z,49.27
2018-08-06T20:58:02.111Z,54.43
2018-08-06T21:00:35.312Z,54.73
2018-08-06T21:03:08.614Z,55.23
2018-08-06T21:05:41.977Z,48.93
2018-08-06T21:08:15.555Z,50.52
2018-08-06T21:10:48.612Z,52.17
2018-08-06T21:13:22.001Z,45.87
2018-08-06T21:15:55.140Z,41.27
2018-08-06T21:18:28.381Z,45.70
2018-08-06T21:21:01.438Z,44.60
2018-08-06T21:23:34.697Z,44.10
2018-08-06T21:26:07.804Z,47.80
2018-08-06T21:28:41.080Z,40.30
2018-08-06T21:31:14.272Z,45.83
2018-08-06T21:33:47.455Z,37.60
2018-08-06T21:36:20.625Z,36.10
2018-08-06T21:38:53.757Z,35.73
2018-08-06T21:41:27.069Z,39.90
2018-08-06T21:44:00.220Z,44.07
2018-08-06T21:46:33.417Z,36.80
2018-08-06T21:49:06.572Z,41.07
2018-08-06T21:51:39.716Z,39.93
2018-08-06T21:54:13.378Z,36.03
2018-08-06T21:56:46.672Z,37.77
2018-08-06T21:59:20.483Z,39.97
2018-08-06T22:01:53.586Z,39.10
2018-08-06T22:04:26.799Z,41.47
2018-08-06T22:06:59.955Z,41.80
2018-08-06T22:09:33.067Z,41.57
2018-08-06T22:12:06.200Z,44.73
2018-08-06T22:14:39.309Z,36.50
2018-08-06T22:17:12.524Z,38.20
2018-08-06T22:19:45.649Z,41.70
2018-08-06T22:22:18.767Z,37.80
2018-08-06T22:24:52.073Z,48.20
2018-08-06T22:27:25.256Z,43.77
2018-08-06T22:29:58.450Z,36.40
2018-08-06T22:32:31.857Z,36.60
2018-08-06T22:35:06.127Z,42.37
2018-08-06T22:37:39.227Z,39.57
2018-08-06T22:40:13.975Z,39.53
2018-08-06T22:42:47.132Z,47.50
2018-08-06T22:45:20.241Z,38.17
2018-08-06T22:47:53.147Z,37.60
2018-08-06T22:50:26.259Z,38.67
2018-08-06T22:52:59.480Z,41.40
2018-08-06T22:55:34.409Z,38.75
2018-08-06T22:58:07.579Z,38.97
2018-08-06T23:00:40.614Z,39.27
2018-08-06T23:03:13.851Z,46.40
2018-08-06T23:05:47.079Z,45.50
2018-08-06T23:08:20.028Z,45.90
2018-08-06T23:10:53.045Z,40.20
2018-08-06T23:13:26.077Z,44.70
2018-08-06T23:15:59.123Z,48.27
2018-08-06T23:18:32.211Z,47.87
2018-08-06T23:21:05.335Z,47.63
2018-08-06T23:23:38.479Z,47.27
2018-08-06T23:26:11.522Z,47.43
2018-08-06T23:28:44.690Z,55.57
2018-08-06T23:31:17.670Z,41.07
2018-08-06T23:33:50.728Z,48.97
2018-08-06T23:36:23.848Z,43.10
2018-08-06T23:38:56.963Z,42.87
2018-08-06T23:41:30.075Z,47.60
2018-08-06T23:44:03.006Z,54.73
2018-08-06T23:46:36.044Z,55.30
2018-08-06T23:49:09.167Z,51.80
2018-08-06T23:51:42.309Z,43.73
2018-08-06T23:54:15.639Z,43.90
2018-08-06T23:56:48.674Z,44.50
2018-08-06T23:59:21.699Z,41.68
